Metar z pełnej godziny Komunikat METAR ze strony awiacja.imgw.pl Metar G00 EPWA METAR EPWA 162200Z 15005KT 9999 BKN028 M01/M03 Q1020 R88/2///95 NOSIG=